sensor_id;sensor_type;location;lat;lon;timestamp;P1;durP1;ratioP1;P2;durP2;ratioP2
14001;SDS011;7076;51.280;12.584;2024-01-30T00:00:53;4.63;;;2.80;;
14001;SDS011;7076;51.280;12.584;2024-01-30T00:05:55;5.37;;;3.63;;
14001;SDS011;7076;51.280;12.584;2024-01-30T00:11:02;5.77;;;3.50;;
14001;SDS011;7076;51.280;12.584;2024-01-30T00:16:05;4.83;;;3.70;;
14001;SDS011;7076;51.280;12.584;2024-01-30T00:21:08;4.87;;;3.10;;
14001;SDS011;7076;51.280;12.584;2024-01-30T00:26:12;5.93;;;3.37;;
14001;SDS011;7076;51.280;12.584;2024-01-30T00:31:16;8.00;;;3.27;;
14001;SDS011;7076;51.280;12.584;2024-01-30T00:36:19;5.33;;;4.00;;
14001;SDS011;7076;51.280;12.584;2024-01-30T00:41:23;7.80;;;4.10;;
14001;SDS011;7076;51.280;12.584;2024-01-30T00:46:26;7.63;;;4.07;;
14001;SDS011;7076;51.280;12.584;2024-01-30T00:51:28;7.77;;;4.50;;
14001;SDS011;7076;51.280;12.584;2024-01-30T00:56:33;8.43;;;3.90;;
14001;SDS011;7076;51.280;12.584;2024-01-30T01:01:36;6.87;;;3.77;;
14001;SDS011;7076;51.280;12.584;2024-01-30T01:06:39;6.27;;;3.57;;
14001;SDS011;7076;51.280;12.584;2024-01-30T01:11:45;5.40;;;3.30;;
14001;SDS011;7076;51.280;12.584;2024-01-30T01:16:49;6.33;;;3.80;;
14001;SDS011;7076;51.280;12.584;2024-01-30T01:21:51;6.73;;;3.53;;
14001;SDS011;7076;51.280;12.584;2024-01-30T01:26:56;6.67;;;3.47;;
14001;SDS011;7076;51.280;12.584;2024-01-30T01:31:58;5.87;;;4.00;;
14001;SDS011;7076;51.280;12.584;2024-01-30T01:37:01;6.57;;;3.57;;
14001;SDS011;7076;51.280;12.584;2024-01-30T01:42:06;6.40;;;3.97;;
14001;SDS011;7076;51.280;12.584;2024-01-30T01:47:08;6.87;;;3.60;;
14001;SDS011;7076;51.280;12.584;2024-01-30T01:52:11;4.43;;;3.27;;
14001;SDS011;7076;51.280;12.584;2024-01-30T01:57:16;4.60;;;3.50;;
14001;SDS011;7076;51.280;12.584;2024-01-30T02:02:18;5.80;;;3.67;;
14001;SDS011;7076;51.280;12.584;2024-01-30T02:07:22;5.20;;;3.40;;
14001;SDS011;7076;51.280;12.584;2024-01-30T02:12:26;6.00;;;3.70;;
14001;SDS011;7076;51.280;12.584;2024-01-30T02:17:29;5.17;;;3.60;;
14001;SDS011;7076;51.280;12.584;2024-01-30T02:22:33;7.20;;;3.47;;
14001;SDS011;7076;51.280;12.584;2024-01-30T02:27:37;5.77;;;3.53;;
14001;SDS011;7076;51.280;12.584;2024-01-30T02:32:40;5.43;;;3.60;;
14001;SDS011;7076;51.280;12.584;2024-01-30T02:37:44;6.10;;;3.57;;
14001;SDS011;7076;51.280;12.584;2024-01-30T02:42:47;6.63;;;3.17;;
14001;SDS011;7076;51.280;12.584;2024-01-30T02:47:49;7.30;;;3.37;;
14001;SDS011;7076;51.280;12.584;2024-01-30T02:52:54;5.30;;;3.67;;
14001;SDS011;7076;51.280;12.584;2024-01-30T02:57:56;6.90;;;4.00;;
14001;SDS011;7076;51.280;12.584;2024-01-30T03:02:59;7.03;;;3.40;;
14001;SDS011;7076;51.280;12.584;2024-01-30T03:08:05;4.87;;;3.37;;
14001;SDS011;7076;51.280;12.584;2024-01-30T03:13:08;6.77;;;3.67;;
14001;SDS011;7076;51.280;12.584;2024-01-30T03:18:11;5.47;;;3.07;;
14001;SDS011;7076;51.280;12.584;2024-01-30T03:23:15;5.00;;;3.40;;
14001;SDS011;7076;51.280;12.584;2024-01-30T03:28:18;5.93;;;3.27;;
14001;SDS011;7076;51.280;12.584;2024-01-30T03:33:21;3.63;;;2.67;;
14001;SDS011;7076;51.280;12.584;2024-01-30T03:38:25;4.00;;;2.57;;
14001;SDS011;7076;51.280;12.584;2024-01-30T03:43:28;4.10;;;2.70;;
14001;SDS011;7076;51.280;12.584;2024-01-30T03:48:31;4.60;;;2.87;;
14001;SDS011;7076;51.280;12.584;2024-01-30T03:53:35;5.10;;;2.93;;
14001;SDS011;7076;51.280;12.584;2024-01-30T03:58:38;4.63;;;2.90;;
14001;SDS011;7076;51.280;12.584;2024-01-30T04:03:41;4.77;;;3.00;;
14001;SDS011;7076;51.280;12.584;2024-01-30T04:08:47;5.37;;;3.20;;
14001;SDS011;7076;51.280;12.584;2024-01-30T04:13:49;5.90;;;3.10;;
14001;SDS011;7076;51.280;12.584;2024-01-30T04:18:52;4.13;;;2.70;;
14001;SDS011;7076;51.280;12.584;2024-01-30T04:23:56;4.63;;;3.27;;
14001;SDS011;7076;51.280;12.584;2024-01-30T04:28:59;4.53;;;3.17;;
14001;SDS011;7076;51.280;12.584;2024-01-30T04:34:02;4.17;;;2.67;;
14001;SDS011;7076;51.280;12.584;2024-01-30T04:39:06;4.67;;;2.73;;
14001;SDS011;7076;51.280;12.584;2024-01-30T04:44:10;4.37;;;2.73;;
14001;SDS011;7076;51.280;12.584;2024-01-30T04:49:12;3.97;;;2.80;;
14001;SDS011;7076;51.280;12.584;2024-01-30T04:54:17;5.03;;;2.90;;
14001;SDS011;7076;51.280;12.584;2024-01-30T04:59:20;5.13;;;2.77;;
14001;SDS011;7076;51.280;12.584;2024-01-30T05:04:22;4.57;;;3.00;;
14001;SDS011;7076;51.280;12.584;2024-01-30T05:09:27;4.23;;;2.83;;
14001;SDS011;7076;51.280;12.584;2024-01-30T05:14:29;3.60;;;2.47;;
14001;SDS011;7076;51.280;12.584;2024-01-30T05:19:32;4.07;;;2.67;;
14001;SDS011;7076;51.280;12.584;2024-01-30T05:24:37;4.70;;;2.67;;
14001;SDS011;7076;51.280;12.584;2024-01-30T05:29:39;6.37;;;3.27;;
14001;SDS011;7076;51.280;12.584;2024-01-30T05:34:42;4.33;;;2.90;;
14001;SDS011;7076;51.280;12.584;2024-01-30T05:39:47;3.23;;;2.47;;
14001;SDS011;7076;51.280;12.584;2024-01-30T05:44:50;3.90;;;2.90;;
14001;SDS011;7076;51.280;12.584;2024-01-30T05:49:52;4.83;;;2.40;;
14001;SDS011;7076;51.280;12.584;2024-01-30T05:54:57;3.87;;;2.20;;
14001;SDS011;7076;51.280;12.584;2024-01-30T06:00:00;5.30;;;2.83;;
14001;SDS011;7076;51.280;12.584;2024-01-30T06:05:05;4.53;;;2.57;;
14001;SDS011;7076;51.280;12.584;2024-01-30T06:10:10;3.63;;;2.57;;
14001;SDS011;7076;51.280;12.584;2024-01-30T06:15:12;3.97;;;2.70;;
14001;SDS011;7076;51.280;12.584;2024-01-30T06:20:15;5.10;;;2.90;;
14001;SDS011;7076;51.280;12.584;2024-01-30T06:25:20;3.37;;;2.67;;
14001;SDS011;7076;51.280;12.584;2024-01-30T06:30:23;3.63;;;2.63;;
14001;SDS011;7076;51.280;12.584;2024-01-30T06:35:26;4.13;;;3.07;;
14001;SDS011;7076;51.280;12.584;2024-01-30T06:40:31;4.63;;;2.33;;
14001;SDS011;7076;51.280;12.584;2024-01-30T06:45:34;4.77;;;2.60;;
14001;SDS011;7076;51.280;12.584;2024-01-30T06:50:37;5.07;;;2.83;;
14001;SDS011;7076;51.280;12.584;2024-01-30T06:55:41;3.27;;;2.40;;
14001;SDS011;7076;51.280;12.584;2024-01-30T07:00:47;4.30;;;2.97;;
14001;SDS011;7076;51.280;12.584;2024-01-30T07:05:50;6.03;;;3.03;;
14001;SDS011;7076;51.280;12.584;2024-01-30T07:10:54;3.90;;;3.13;;
14001;SDS011;7076;51.280;12.584;2024-01-30T07:16:01;3.67;;;3.03;;
14001;SDS011;7076;51.280;12.584;2024-01-30T07:21:04;3.67;;;2.90;;
14001;SDS011;7076;51.280;12.584;2024-01-30T07:26:09;7.40;;;3.40;;
14001;SDS011;7076;51.280;12.584;2024-01-30T07:31:12;3.70;;;3.30;;
14001;SDS011;7076;51.280;12.584;2024-01-30T07:36:15;4.50;;;3.30;;
14001;SDS011;7076;51.280;12.584;2024-01-30T07:41:19;7.83;;;3.50;;
14001;SDS011;7076;51.280;12.584;2024-01-30T07:46:22;5.73;;;3.50;;
14001;SDS011;7076;51.280;12.584;2024-01-30T07:51:25;6.80;;;3.50;;
14001;SDS011;7076;51.280;12.584;2024-01-30T07:56:31;6.20;;;3.50;;
14001;SDS011;7076;51.280;12.584;2024-01-30T08:01:33;5.40;;;3.33;;
14001;SDS011;7076;51.280;12.584;2024-01-30T08:06:36;4.57;;;3.53;;
14001;SDS011;7076;51.280;12.584;2024-01-30T08:11:44;5.20;;;3.50;;
14001;SDS011;7076;51.280;12.584;2024-01-30T08:16:46;5.70;;;3.20;;
14001;SDS011;7076;51.280;12.584;2024-01-30T08:21:49;4.87;;;3.30;;
14001;SDS011;7076;51.280;12.584;2024-01-30T08:26:53;5.87;;;3.50;;
14001;SDS011;7076;51.280;12.584;2024-01-30T08:31:56;6.00;;;3.37;;
14001;SDS011;7076;51.280;12.584;2024-01-30T08:37:00;6.03;;;3.53;;
14001;SDS011;7076;51.280;12.584;2024-01-30T08:42:05;5.80;;;3.53;;
14001;SDS011;7076;51.280;12.584;2024-01-30T08:47:09;4.27;;;3.30;;
14001;SDS011;7076;51.280;12.584;2024-01-30T08:52:12;7.63;;;3.90;;
14001;SDS011;7076;51.280;12.584;2024-01-30T08:57:16;3.93;;;3.47;;
14001;SDS011;7076;51.280;12.584;2024-01-30T09:02:19;5.85;;;4.00;;
14001;SDS011;7076;51.280;12.584;2024-01-30T09:07:22;6.70;;;4.00;;
14001;SDS011;7076;51.280;12.584;2024-01-30T09:12:26;6.40;;;4.20;;
14001;SDS011;7076;51.280;12.584;2024-01-30T09:17:29;5.83;;;4.03;;
14001;SDS011;7076;51.280;12.584;2024-01-30T09:22:32;7.83;;;4.37;;
14001;SDS011;7076;51.280;12.584;2024-01-30T09:27:36;9.15;;;4.30;;
14001;SDS011;7076;51.280;12.584;2024-01-30T09:32:39;8.13;;;4.57;;
14001;SDS011;7076;51.280;12.584;2024-01-30T09:37:42;6.18;;;4.00;;
14001;SDS011;7076;51.280;12.584;2024-01-30T09:42:47;5.68;;;4.30;;
14001;SDS011;7076;51.280;12.584;2024-01-30T09:47:51;6.15;;;4.68;;
14001;SDS011;7076;51.280;12.584;2024-01-30T09:52:55;8.98;;;4.00;;
14001;SDS011;7076;51.280;12.584;2024-01-30T09:57:59;6.15;;;4.28;;
14001;SDS011;7076;51.280;12.584;2024-01-30T10:03:03;7.35;;;4.63;;
14001;SDS011;7076;51.280;12.584;2024-01-30T10:08:06;6.95;;;4.38;;
14001;SDS011;7076;51.280;12.584;2024-01-30T10:13:11;7.45;;;4.78;;
14001;SDS011;7076;51.280;12.584;2024-01-30T10:18:14;5.80;;;4.30;;
14001;SDS011;7076;51.280;12.584;2024-01-30T10:23:17;9.20;;;4.80;;
14001;SDS011;7076;51.280;12.584;2024-01-30T10:28:22;6.55;;;4.38;;
14001;SDS011;7076;51.280;12.584;2024-01-30T10:33:25;7.65;;;4.80;;
14001;SDS011;7076;51.280;12.584;2024-01-30T10:38:29;7.85;;;4.85;;
14001;SDS011;7076;51.280;12.584;2024-01-30T10:43:35;7.10;;;4.60;;
14001;SDS011;7076;51.280;12.584;2024-01-30T10:48:41;5.80;;;4.07;;
14001;SDS011;7076;51.280;12.584;2024-01-30T10:53:46;8.68;;;5.00;;
14001;SDS011;7076;51.280;12.584;2024-01-30T10:58:51;8.35;;;5.07;;
14001;SDS011;7076;51.280;12.584;2024-01-30T11:03:55;7.40;;;4.55;;
14001;SDS011;7076;51.280;12.584;2024-01-30T11:09:02;6.30;;;4.40;;
14001;SDS011;7076;51.280;12.584;2024-01-30T11:14:13;9.48;;;4.90;;
14001;SDS011;7076;51.280;12.584;2024-01-30T11:19:21;5.32;;;4.10;;
14001;SDS011;7076;51.280;12.584;2024-01-30T11:24:25;7.70;;;5.05;;
14001;SDS011;7076;51.280;12.584;2024-01-30T11:29:29;6.47;;;4.82;;
14001;SDS011;7076;51.280;12.584;2024-01-30T11:34:32;12.13;;;4.65;;
14001;SDS011;7076;51.280;12.584;2024-01-30T11:39:36;7.38;;;5.00;;
14001;SDS011;7076;51.280;12.584;2024-01-30T11:44:41;10.60;;;5.32;;
14001;SDS011;7076;51.280;12.584;2024-01-30T11:49:50;6.60;;;4.97;;
14001;SDS011;7076;51.280;12.584;2024-01-30T11:54:53;7.25;;;4.88;;
14001;SDS011;7076;51.280;12.584;2024-01-30T11:59:58;6.55;;;4.50;;
14001;SDS011;7076;51.280;12.584;2024-01-30T12:05:03;6.63;;;4.68;;
14001;SDS011;7076;51.280;12.584;2024-01-30T12:10:08;6.70;;;4.35;;
14001;SDS011;7076;51.280;12.584;2024-01-30T12:15:14;6.47;;;4.50;;
14001;SDS011;7076;51.280;12.584;2024-01-30T12:20:18;7.43;;;5.13;;
14001;SDS011;7076;51.280;12.584;2024-01-30T12:25:23;8.60;;;4.72;;
14001;SDS011;7076;51.280;12.584;2024-01-30T12:30:28;7.25;;;4.93;;
14001;SDS011;7076;51.280;12.584;2024-01-30T12:35:31;8.70;;;4.85;;
14001;SDS011;7076;51.280;12.584;2024-01-30T12:40:34;7.68;;;4.63;;
14001;SDS011;7076;51.280;12.584;2024-01-30T12:45:43;8.57;;;4.72;;
14001;SDS011;7076;51.280;12.584;2024-01-30T12:50:46;6.60;;;4.32;;
14001;SDS011;7076;51.280;12.584;2024-01-30T12:55:49;6.05;;;4.22;;
14001;SDS011;7076;51.280;12.584;2024-01-30T13:00:53;9.93;;;4.75;;
14001;SDS011;7076;51.280;12.584;2024-01-30T13:05:57;8.48;;;4.30;;
14001;SDS011;7076;51.280;12.584;2024-01-30T13:11:00;8.30;;;5.50;;
14001;SDS011;7076;51.280;12.584;2024-01-30T13:16:05;8.38;;;4.30;;
14001;SDS011;7076;51.280;12.584;2024-01-30T13:21:08;8.90;;;4.15;;
14001;SDS011;7076;51.280;12.584;2024-01-30T13:26:11;8.20;;;4.90;;
14001;SDS011;7076;51.280;12.584;2024-01-30T13:31:15;8.55;;;5.03;;
14001;SDS011;7076;51.280;12.584;2024-01-30T13:36:19;7.50;;;4.80;;
14001;SDS011;7076;51.280;12.584;2024-01-30T13:41:22;7.25;;;4.88;;
14001;SDS011;7076;51.280;12.584;2024-01-30T13:46:26;9.23;;;5.15;;
14001;SDS011;7076;51.280;12.584;2024-01-30T13:51:29;8.48;;;5.32;;
14001;SDS011;7076;51.280;12.584;2024-01-30T13:56:32;8.10;;;5.05;;
14001;SDS011;7076;51.280;12.584;2024-01-30T14:01:37;7.97;;;5.22;;
14001;SDS011;7076;51.280;12.584;2024-01-30T14:06:40;8.98;;;5.40;;
14001;SDS011;7076;51.280;12.584;2024-01-30T14:11:53;5.85;;;4.93;;
14001;SDS011;7076;51.280;12.584;2024-01-30T14:16:58;6.03;;;4.45;;
14001;SDS011;7076;51.280;12.584;2024-01-30T14:22:01;8.02;;;5.13;;
14001;SDS011;7076;51.280;12.584;2024-01-30T14:27:04;6.85;;;4.80;;
14001;SDS011;7076;51.280;12.584;2024-01-30T14:32:10;6.30;;;4.40;;
14001;SDS011;7076;51.280;12.584;2024-01-30T14:37:14;6.63;;;4.50;;
14001;SDS011;7076;51.280;12.584;2024-01-30T14:42:18;8.80;;;4.95;;
14001;SDS011;7076;51.280;12.584;2024-01-30T14:47:22;8.05;;;4.30;;
14001;SDS011;7076;51.280;12.584;2024-01-30T14:52:25;9.35;;;4.72;;
14001;SDS011;7076;51.280;12.584;2024-01-30T14:57:28;6.20;;;4.80;;
14001;SDS011;7076;51.280;12.584;2024-01-30T15:02:33;7.10;;;5.10;;
14001;SDS011;7076;51.280;12.584;2024-01-30T15:07:36;6.60;;;4.60;;
14001;SDS011;7076;51.280;12.584;2024-01-30T15:12:41;6.53;;;5.00;;
14001;SDS011;7076;51.280;12.584;2024-01-30T15:17:45;8.95;;;5.07;;
14001;SDS011;7076;51.280;12.584;2024-01-30T15:22:48;7.32;;;4.85;;
14001;SDS011;7076;51.280;12.584;2024-01-30T15:27:51;6.55;;;4.85;;
14001;SDS011;7076;51.280;12.584;2024-01-30T15:32:55;6.43;;;5.20;;
14001;SDS011;7076;51.280;12.584;2024-01-30T15:37:58;7.15;;;4.75;;
14001;SDS011;7076;51.280;12.584;2024-01-30T15:43:01;6.47;;;4.70;;
14001;SDS011;7076;51.280;12.584;2024-01-30T15:48:06;10.30;;;5.15;;
14001;SDS011;7076;51.280;12.584;2024-01-30T15:53:10;6.47;;;4.45;;
14001;SDS011;7076;51.280;12.584;2024-01-30T15:58:12;7.85;;;5.07;;
14001;SDS011;7076;51.280;12.584;2024-01-30T16:03:17;7.13;;;5.07;;
14001;SDS011;7076;51.280;12.584;2024-01-30T16:08:20;6.40;;;4.63;;
14001;SDS011;7076;51.280;12.584;2024-01-30T16:13:23;7.13;;;5.13;;
14001;SDS011;7076;51.280;12.584;2024-01-30T16:18:27;6.13;;;4.65;;
14001;SDS011;7076;51.280;12.584;2024-01-30T16:23:32;6.82;;;4.90;;
14001;SDS011;7076;51.280;12.584;2024-01-30T16:28:35;9.70;;;5.22;;
14001;SDS011;7076;51.280;12.584;2024-01-30T16:33:39;8.90;;;5.38;;
14001;SDS011;7076;51.280;12.584;2024-01-30T16:38:42;6.80;;;4.82;;
14001;SDS011;7076;51.280;12.584;2024-01-30T16:43:45;6.53;;;4.70;;
14001;SDS011;7076;51.280;12.584;2024-01-30T16:48:49;7.68;;;5.13;;
14001;SDS011;7076;51.280;12.584;2024-01-30T16:53:53;6.82;;;5.50;;
14001;SDS011;7076;51.280;12.584;2024-01-30T16:58:55;6.47;;;4.95;;
14001;SDS011;7076;51.280;12.584;2024-01-30T17:04:00;9.40;;;4.90;;
14001;SDS011;7076;51.280;12.584;2024-01-30T17:09:03;7.25;;;5.25;;
14001;SDS011;7076;51.280;12.584;2024-01-30T17:14:05;8.43;;;5.47;;
14001;SDS011;7076;51.280;12.584;2024-01-30T17:19:10;11.27;;;7.13;;
14001;SDS011;7076;51.280;12.584;2024-01-30T17:24:13;8.88;;;5.78;;
14001;SDS011;7076;51.280;12.584;2024-01-30T17:29:16;7.78;;;5.72;;
14001;SDS011;7076;51.280;12.584;2024-01-30T17:34:21;8.73;;;6.07;;
14001;SDS011;7076;51.280;12.584;2024-01-30T17:39:25;8.68;;;6.35;;
14001;SDS011;7076;51.280;12.584;2024-01-30T17:44:28;8.80;;;6.05;;
14001;SDS011;7076;51.280;12.584;2024-01-30T17:49:33;8.07;;;6.00;;
14001;SDS011;7076;51.280;12.584;2024-01-30T17:54:36;8.48;;;5.65;;
14001;SDS011;7076;51.280;12.584;2024-01-30T17:59:39;10.00;;;5.80;;
14001;SDS011;7076;51.280;12.584;2024-01-30T18:04:43;8.80;;;5.65;;
14001;SDS011;7076;51.280;12.584;2024-01-30T18:09:47;6.72;;;5.50;;
14001;SDS011;7076;51.280;12.584;2024-01-30T18:14:50;7.03;;;5.18;;
14001;SDS011;7076;51.280;12.584;2024-01-30T18:19:54;8.52;;;5.22;;
14001;SDS011;7076;51.280;12.584;2024-01-30T18:24:57;8.85;;;5.32;;
14001;SDS011;7076;51.280;12.584;2024-01-30T18:30:00;8.63;;;4.68;;
14001;SDS011;7076;51.280;12.584;2024-01-30T18:35:05;6.50;;;4.68;;
14001;SDS011;7076;51.280;12.584;2024-01-30T18:40:08;4.72;;;4.22;;
14001;SDS011;7076;51.280;12.584;2024-01-30T18:45:12;7.05;;;5.32;;
14001;SDS011;7076;51.280;12.584;2024-01-30T18:50:16;9.82;;;5.35;;
14001;SDS011;7076;51.280;12.584;2024-01-30T18:55:19;8.18;;;4.80;;
14001;SDS011;7076;51.280;12.584;2024-01-30T19:00:22;6.55;;;4.88;;
14001;SDS011;7076;51.280;12.584;2024-01-30T19:05:26;5.88;;;4.55;;
14001;SDS011;7076;51.280;12.584;2024-01-30T19:10:30;5.97;;;4.55;;
14001;SDS011;7076;51.280;12.584;2024-01-30T19:15:43;8.10;;;4.50;;
14001;SDS011;7076;51.280;12.584;2024-01-30T19:20:48;6.43;;;5.03;;
14001;SDS011;7076;51.280;12.584;2024-01-30T19:25:50;6.72;;;4.68;;
14001;SDS011;7076;51.280;12.584;2024-01-30T19:30:53;5.10;;;4.47;;
14001;SDS011;7076;51.280;12.584;2024-01-30T19:35:59;8.85;;;4.95;;
14001;SDS011;7076;51.280;12.584;2024-01-30T19:41:02;7.45;;;4.90;;
14001;SDS011;7076;51.280;12.584;2024-01-30T19:46:07;8.48;;;5.38;;
14001;SDS011;7076;51.280;12.584;2024-01-30T19:51:13;6.38;;;4.38;;
14001;SDS011;7076;51.280;12.584;2024-01-30T19:56:16;7.05;;;5.20;;
14001;SDS011;7076;51.280;12.584;2024-01-30T20:01:19;6.88;;;5.13;;
14001;SDS011;7076;51.280;12.584;2024-01-30T20:06:23;6.97;;;5.18;;
14001;SDS011;7076;51.280;12.584;2024-01-30T20:11:26;6.50;;;4.88;;
14001;SDS011;7076;51.280;12.584;2024-01-30T20:16:34;6.63;;;4.70;;
14001;SDS011;7076;51.280;12.584;2024-01-30T20:21:40;6.53;;;4.95;;
14001;SDS011;7076;51.280;12.584;2024-01-30T20:26:44;7.75;;;5.03;;
14001;SDS011;7076;51.280;12.584;2024-01-30T20:31:47;7.53;;;4.85;;
14001;SDS011;7076;51.280;12.584;2024-01-30T20:36:51;6.75;;;5.05;;
14001;SDS011;7076;51.280;12.584;2024-01-30T20:41:54;6.88;;;4.93;;
14001;SDS011;7076;51.280;12.584;2024-01-30T20:46:57;6.22;;;4.60;;
14001;SDS011;7076;51.280;12.584;2024-01-30T20:52:02;7.72;;;5.00;;
14001;SDS011;7076;51.280;12.584;2024-01-30T20:57:05;7.97;;;4.38;;
14001;SDS011;7076;51.280;12.584;2024-01-30T21:02:07;7.85;;;5.15;;
14001;SDS011;7076;51.280;12.584;2024-01-30T21:07:12;10.07;;;5.28;;
14001;SDS011;7076;51.280;12.584;2024-01-30T21:12:15;8.85;;;5.50;;
14001;SDS011;7076;51.280;12.584;2024-01-30T21:17:18;7.07;;;5.22;;
14001;SDS011;7076;51.280;12.584;2024-01-30T21:22:22;6.28;;;5.25;;
14001;SDS011;7076;51.280;12.584;2024-01-30T21:27:25;8.00;;;5.38;;
14001;SDS011;7076;51.280;12.584;2024-01-30T21:32:28;8.65;;;5.45;;
14001;SDS011;7076;51.280;12.584;2024-01-30T21:37:32;7.45;;;5.20;;
14001;SDS011;7076;51.280;12.584;2024-01-30T21:42:36;10.65;;;5.38;;
14001;SDS011;7076;51.280;12.584;2024-01-30T21:47:40;8.57;;;5.35;;
14001;SDS011;7076;51.280;12.584;2024-01-30T21:52:44;9.20;;;5.70;;
14001;SDS011;7076;51.280;12.584;2024-01-30T21:57:47;7.47;;;4.93;;
14001;SDS011;7076;51.280;12.584;2024-01-30T22:02:50;6.38;;;4.75;;
14001;SDS011;7076;51.280;12.584;2024-01-30T22:07:54;7.68;;;5.43;;
14001;SDS011;7076;51.280;12.584;2024-01-30T22:12:57;8.63;;;5.45;;
14001;SDS011;7076;51.280;12.584;2024-01-30T22:18:00;7.15;;;5.45;;
14001;SDS011;7076;51.280;12.584;2024-01-30T22:23:05;7.95;;;5.00;;
14001;SDS011;7076;51.280;12.584;2024-01-30T22:28:08;7.28;;;5.38;;
14001;SDS011;7076;51.280;12.584;2024-01-30T22:33:10;7.15;;;5.45;;
14001;SDS011;7076;51.280;12.584;2024-01-30T22:38:15;7.68;;;5.38;;
14001;SDS011;7076;51.280;12.584;2024-01-30T22:43:19;7.88;;;5.45;;
14001;SDS011;7076;51.280;12.584;2024-01-30T22:48:22;7.28;;;5.50;;
14001;SDS011;7076;51.280;12.584;2024-01-30T22:53:26;6.45;;;5.50;;
14001;SDS011;7076;51.280;12.584;2024-01-30T22:58:29;9.93;;;5.80;;
14001;SDS011;7076;51.280;12.584;2024-01-30T23:03:32;9.40;;;5.72;;
14001;SDS011;7076;51.280;12.584;2024-01-30T23:08:36;7.53;;;6.03;;
14001;SDS011;7076;51.280;12.584;2024-01-30T23:13:39;7.95;;;5.45;;
14001;SDS011;7076;51.280;12.584;2024-01-30T23:18:42;8.30;;;6.30;;
14001;SDS011;7076;51.280;12.584;2024-01-30T23:23:47;7.57;;;5.50;;
14001;SDS011;7076;51.280;12.584;2024-01-30T23:28:50;10.07;;;6.28;;
14001;SDS011;7076;51.280;12.584;2024-01-30T23:33:53;8.65;;;5.60;;
14001;SDS011;7076;51.280;12.584;2024-01-30T23:38:57;8.32;;;4.82;;
14001;SDS011;7076;51.280;12.584;2024-01-30T23:44:00;8.90;;;5.55;;
14001;SDS011;7076;51.280;12.584;2024-01-30T23:49:03;7.32;;;5.20;;
14001;SDS011;7076;51.280;12.584;2024-01-30T23:54:07;11.55;;;5.63;;
14001;SDS011;7076;51.280;12.584;2024-01-30T23:59:10;8.05;;;5.78;;
